createdAt,value
2023-05-09T00:00:18.071Z,90.47
2023-05-09T00:02:47.147Z,90.68
2023-05-09T00:05:16.571Z,90.99
2023-05-09T00:07:45.532Z,90.76
2023-05-09T00:10:16.470Z,91.15
2023-05-09T00:12:47.585Z,90.34
2023-05-09T00:15:16.767Z,90.63
2023-05-09T00:17:46.235Z,89.82
2023-05-09T00:20:14.974Z,90.22
2023-05-09T00:22:43.870Z,90.06
2023-05-09T00:25:13.111Z,90.53
2023-05-09T00:27:42.283Z,90.91
2023-05-09T00:30:13.282Z,92.19
2023-05-09T00:32:41.949Z,91.73
2023-05-09T00:35:11.275Z,92.28
2023-05-09T00:37:40.203Z,92.13
2023-05-09T00:40:09.821Z,92.26
2023-05-09T00:42:39.043Z,91.51
2023-05-09T00:45:08.891Z,92.02
2023-05-09T00:47:39.904Z,91.56
2023-05-09T00:50:11.277Z,91.38
2023-05-09T00:52:40.597Z,90.84
2023-05-09T00:55:10.397Z,92.29
2023-05-09T00:57:38.889Z,91.54
2023-05-09T01:00:13.440Z,91.51
2023-05-09T01:02:45.221Z,91.55
2023-05-09T01:05:14.633Z,91.41
2023-05-09T01:07:48.175Z,91.34
2023-05-09T01:10:23.370Z,92.31
2023-05-09T01:12:57.687Z,93.36
2023-05-09T01:15:31.156Z,94.52
2023-05-09T01:18:11.453Z,95.53
2023-05-09T01:20:42.549Z,96.42
2023-05-09T01:23:23.400Z,96.87
2023-05-09T01:25:57.485Z,96.51
2023-05-09T01:28:37.042Z,97.16
2023-05-09T01:31:08.363Z,96.85
2023-05-09T01:33:40.911Z,97.24
2023-05-09T01:36:14.744Z,97.12
2023-05-09T01:38:44.323Z,96.24
2023-05-09T01:41:13.765Z,97.16
2023-05-09T01:43:43.079Z,97.55
2023-05-09T01:46:15.025Z,97.40
2023-05-09T01:48:43.975Z,96.40
2023-05-09T01:51:15.014Z,96.56
2023-05-09T01:53:44.234Z,96.54
2023-05-09T01:56:13.860Z,96.80
2023-05-09T01:58:43.288Z,97.23
2023-05-09T02:01:14.964Z,98.11
2023-05-09T02:03:47.192Z,98.57
2023-05-09T02:06:16.510Z,98.29
2023-05-09T02:08:45.986Z,98.33
2023-05-09T02:11:14.853Z,98.05
2023-05-09T02:13:43.758Z,98.03
2023-05-09T02:16:13.681Z,98.18
2023-05-09T02:18:42.819Z,99.30
2023-05-09T02:21:11.929Z,99.68
2023-05-09T02:23:40.863Z,100.00
2023-05-09T02:26:09.847Z,99.83
2023-05-09T02:28:39.350Z,99.78
2023-05-09T02:31:08.240Z,99.47
2023-05-09T02:33:39.833Z,98.95
2023-05-09T02:36:09.325Z,98.73
2023-05-09T02:38:38.391Z,98.95
2023-05-09T02:41:07.391Z,99.06
2023-05-09T02:43:36.483Z,99.30
2023-05-09T02:46:05.049Z,99.46
2023-05-09T02:48:33.346Z,99.86
2023-05-09T02:51:04.586Z,100.00
2023-05-09T02:53:33.654Z,100.00
2023-05-09T02:56:02.045Z,100.00
2023-05-09T02:58:30.900Z,100.00
2023-05-09T03:01:00.703Z,100.00
2023-05-09T03:03:30.137Z,100.00
2023-05-09T03:05:58.857Z,100.00
2023-05-09T03:08:29.051Z,100.00
2023-05-09T03:10:57.393Z,100.00
2023-05-09T03:13:26.715Z,100.00
2023-05-09T03:15:55.346Z,100.00
2023-05-09T03:18:24.437Z,99.69
2023-05-09T03:20:53.187Z,99.31
2023-05-09T03:23:24.280Z,98.89
2023-05-09T03:25:54.031Z,98.44
2023-05-09T03:28:22.914Z,97.96
2023-05-09T03:30:51.831Z,96.41
2023-05-09T03:33:20.660Z,97.11
2023-05-09T03:35:49.352Z,97.38
2023-05-09T03:38:18.081Z,98.15
2023-05-09T03:40:46.749Z,97.60
2023-05-09T03:43:16.982Z,98.26
2023-05-09T03:45:45.886Z,99.74
2023-05-09T03:48:14.919Z,100.00
2023-05-09T03:50:43.648Z,100.00
2023-05-09T03:53:12.561Z,100.00
2023-05-09T03:55:41.151Z,100.00
2023-05-09T03:58:09.712Z,99.47
2023-05-09T04:00:40.027Z,98.64
2023-05-09T04:03:09.172Z,98.12
2023-05-09T04:05:37.861Z,97.14
2023-05-09T04:08:07.124Z,96.96
2023-05-09T04:10:35.750Z,96.76
2023-05-09T04:13:04.692Z,97.02
2023-05-09T04:15:33.010Z,97.25
2023-05-09T04:18:03.684Z,96.91
2023-05-09T04:20:32.647Z,97.38
2023-05-09T04:23:01.759Z,97.35
2023-05-09T04:25:34.673Z,97.36
2023-05-09T04:28:04.003Z,97.64
2023-05-09T04:30:32.844Z,97.98
2023-05-09T04:33:03.230Z,98.05
2023-05-09T04:35:31.962Z,98.19
2023-05-09T04:38:00.971Z,98.19
2023-05-09T04:40:31.193Z,98.10
2023-05-09T04:43:02.082Z,98.34
2023-05-09T04:45:30.420Z,98.37
2023-05-09T04:47:59.224Z,98.26
2023-05-09T04:50:29.412Z,99.09
2023-05-09T04:52:58.051Z,99.82
2023-05-09T04:55:26.549Z,100.00
2023-05-09T04:57:55.412Z,99.72
2023-05-09T05:00:23.956Z,99.33
2023-05-09T05:02:52.962Z,99.82
2023-05-09T05:05:25.071Z,99.13
2023-05-09T05:07:56.248Z,98.30
2023-05-09T05:10:24.983Z,97.77
2023-05-09T05:12:53.597Z,96.82
2023-05-09T05:15:22.265Z,95.45
2023-05-09T05:17:50.943Z,94.83
2023-05-09T05:20:19.730Z,93.93
2023-05-09T05:22:48.144Z,93.79
2023-05-09T05:25:18.802Z,93.13
2023-05-09T05:27:47.320Z,92.65
2023-05-09T05:30:16.931Z,93.07
2023-05-09T05:32:45.951Z,93.41
2023-05-09T05:35:15.230Z,93.14
2023-05-09T05:37:44.543Z,91.93
2023-05-09T05:40:13.754Z,91.14
2023-05-09T05:42:44.632Z,92.17
2023-05-09T05:45:13.702Z,91.11
2023-05-09T05:47:42.453Z,92.06
2023-05-09T05:50:12.525Z,91.67
2023-05-09T05:52:42.841Z,90.55
2023-05-09T05:55:11.760Z,90.02
2023-05-09T05:57:41.378Z,91.19
2023-05-09T06:00:14.707Z,90.85
2023-05-09T06:02:45.042Z,91.10
2023-05-09T06:05:14.047Z,91.70
2023-05-09T06:07:44.468Z,91.32
2023-05-09T06:10:13.719Z,91.75
2023-05-09T06:12:42.347Z,91.94
2023-05-09T06:15:13.433Z,91.94
2023-05-09T06:17:42.088Z,92.32
2023-05-09T06:20:11.528Z,92.69
2023-05-09T06:22:40.245Z,91.25
2023-05-09T06:25:10.608Z,91.77
2023-05-09T06:27:39.501Z,91.66
2023-05-09T06:30:23.903Z,92.30
2023-05-09T06:32:56.209Z,91.55
2023-05-09T06:35:24.525Z,91.79
2023-05-09T06:37:53.188Z,91.75
2023-05-09T06:40:21.635Z,91.72
2023-05-09T06:42:50.144Z,91.55
2023-05-09T06:45:19.111Z,92.82
2023-05-09T06:47:48.062Z,93.60
2023-05-09T06:50:20.522Z,93.75
2023-05-09T06:52:49.688Z,94.93
2023-05-09T06:55:18.304Z,93.21
2023-05-09T06:57:47.114Z,94.90
2023-05-09T07:00:17.425Z,94.21
2023-05-09T07:02:46.703Z,93.41
2023-05-09T07:05:16.606Z,94.07
2023-05-09T07:07:46.776Z,93.08
2023-05-09T07:10:15.552Z,93.04
2023-05-09T07:12:44.161Z,91.88
2023-05-09T07:15:14.660Z,92.06
2023-05-09T07:17:47.339Z,90.35
2023-05-09T07:20:16.300Z,90.28
2023-05-09T07:22:46.374Z,89.30
2023-05-09T07:25:15.914Z,89.75
2023-05-09T07:27:44.904Z,92.44
2023-05-09T07:30:14.688Z,90.70
2023-05-09T07:32:45.428Z,89.11
2023-05-09T07:35:14.409Z,88.17
2023-05-09T07:37:43.294Z,86.08
2023-05-09T07:40:15.037Z,86.61
2023-05-09T07:42:50.120Z,87.07
2023-05-09T07:45:21.966Z,87.24
2023-05-09T07:47:53.065Z,86.92
2023-05-09T07:50:23.450Z,86.19
2023-05-09T07:52:52.986Z,85.66
2023-05-09T07:55:23.674Z,86.22
2023-05-09T07:57:52.625Z,83.44
2023-05-09T08:00:24.169Z,83.59
2023-05-09T08:02:53.335Z,83.52
2023-05-09T08:05:22.312Z,83.60
2023-05-09T08:07:51.287Z,84.95
2023-05-09T08:10:22.062Z,82.62
2023-05-09T08:12:52.960Z,85.03
2023-05-09T08:15:22.107Z,83.87
2023-05-09T08:17:50.864Z,81.13
2023-05-09T08:20:19.679Z,81.54
2023-05-09T08:22:48.204Z,83.56
2023-05-09T08:25:18.592Z,83.00
2023-05-09T08:27:47.968Z,81.11
2023-05-09T08:30:18.644Z,79.63
2023-05-09T08:32:47.494Z,79.21
2023-05-09T08:35:16.494Z,81.88
2023-05-09T08:37:48.194Z,80.55
2023-05-09T08:40:17.583Z,82.60
2023-05-09T08:42:47.437Z,79.99
2023-05-09T08:45:18.200Z,79.11
2023-05-09T08:47:47.805Z,78.65
2023-05-09T08:50:17.703Z,79.69
2023-05-09T08:52:46.741Z,78.45
2023-05-09T08:55:16.426Z,78.43
2023-05-09T08:57:45.270Z,80.11
2023-05-09T09:00:17.951Z,79.31
2023-05-09T09:02:50.265Z,75.84
2023-05-09T09:05:39.476Z,75.25
2023-05-09T09:08:09.126Z,76.80
2023-05-09T09:10:42.075Z,76.99
2023-05-09T09:13:11.964Z,74.76
2023-05-09T09:15:43.285Z,71.71
2023-05-09T09:18:14.736Z,71.10
2023-05-09T09:20:50.208Z,71.24
2023-05-09T09:23:20.944Z,70.50
2023-05-09T09:25:49.797Z,71.69
2023-05-09T09:28:18.872Z,71.10
2023-05-09T09:30:49.400Z,71.01
2023-05-09T09:33:23.623Z,68.97
2023-05-09T09:35:53.636Z,68.55
2023-05-09T09:38:23.114Z,69.96
2023-05-09T09:40:56.288Z,68.64
2023-05-09T09:43:32.363Z,69.36
2023-05-09T09:46:03.078Z,65.79
2023-05-09T09:48:35.416Z,66.08
2023-05-09T09:51:11.602Z,65.34
2023-05-09T09:53:41.405Z,65.65
2023-05-09T09:56:10.561Z,64.41
2023-05-09T09:58:39.417Z,65.54
2023-05-09T10:01:09.039Z,63.70
2023-05-09T10:03:40.537Z,61.83
2023-05-09T10:06:13.113Z,62.58
2023-05-09T10:08:42.492Z,66.29
2023-05-09T10:11:11.555Z,65.45
2023-05-09T10:13:40.815Z,63.22
2023-05-09T10:16:10.923Z,61.02
2023-05-09T10:18:43.031Z,60.47
2023-05-09T10:21:13.885Z,59.01
2023-05-09T10:23:44.842Z,59.75
2023-05-09T10:26:19.921Z,64.67
2023-05-09T10:28:50.240Z,61.40
2023-05-09T10:31:26.558Z,59.96
2023-05-09T10:34:03.461Z,59.75
2023-05-09T10:36:32.941Z,60.68
2023-05-09T10:39:01.813Z,57.93
2023-05-09T10:41:31.136Z,58.27
2023-05-09T10:44:00.580Z,59.78
2023-05-09T10:46:29.753Z,59.51
2023-05-09T10:49:01.573Z,61.01
2023-05-09T10:51:30.523Z,59.10
2023-05-09T10:53:59.668Z,57.75
2023-05-09T10:56:32.112Z,59.35
2023-05-09T10:59:01.195Z,57.95
2023-05-09T11:01:33.094Z,57.92
2023-05-09T11:04:04.243Z,53.95
2023-05-09T11:06:49.498Z,56.03
2023-05-09T11:09:29.596Z,61.86
2023-05-09T11:11:59.271Z,58.08
2023-05-09T11:14:34.375Z,59.99
2023-05-09T11:17:04.403Z,58.89
2023-05-09T11:19:59.224Z,55.16
2023-05-09T11:22:34.214Z,54.21
2023-05-09T11:25:07.730Z,52.01
2023-05-09T11:27:43.447Z,55.48
2023-05-09T11:30:14.835Z,56.26
2023-05-09T11:32:46.233Z,57.33
2023-05-09T11:35:18.565Z,53.96
2023-05-09T11:37:49.768Z,50.08
2023-05-09T11:40:20.248Z,51.71
2023-05-09T11:42:50.444Z,54.50
2023-05-09T11:45:19.644Z,56.04
2023-05-09T11:47:49.366Z,54.67
2023-05-09T11:50:21.856Z,54.52
2023-05-09T11:52:51.292Z,54.64
2023-05-09T11:55:22.726Z,53.50
2023-05-09T11:57:52.720Z,49.62
2023-05-09T12:00:23.185Z,48.32
2023-05-09T12:02:52.778Z,46.81
2023-05-09T12:05:24.356Z,48.73
2023-05-09T12:07:53.754Z,50.58
2023-05-09T12:10:25.119Z,52.95
2023-05-09T12:12:56.589Z,48.11
2023-05-09T12:15:25.788Z,49.64
2023-05-09T12:18:05.090Z,50.24
2023-05-09T12:20:46.160Z,50.27
2023-05-09T12:23:15.897Z,50.98
2023-05-09T12:25:49.882Z,49.72
2023-05-09T12:28:19.750Z,49.04
2023-05-09T12:30:48.832Z,50.03
2023-05-09T12:33:18.095Z,48.00
2023-05-09T12:35:49.867Z,47.22
2023-05-09T12:38:23.543Z,45.63
2023-05-09T12:41:03.474Z,46.95
2023-05-09T12:43:34.221Z,48.39
2023-05-09T12:46:03.570Z,47.47
2023-05-09T12:48:38.233Z,46.35
2023-05-09T12:51:08.883Z,47.11
2023-05-09T12:53:40.719Z,45.84
2023-05-09T12:56:14.413Z,47.22
2023-05-09T12:58:49.839Z,47.35
2023-05-09T13:01:21.678Z,46.54
2023-05-09T13:03:55.011Z,46.52
2023-05-09T13:06:25.167Z,47.62
2023-05-09T13:09:01.753Z,47.33
2023-05-09T13:11:33.728Z,48.00
2023-05-09T13:14:03.602Z,46.56
2023-05-09T13:16:32.386Z,46.50
2023-05-09T13:19:01.883Z,46.38
2023-05-09T13:21:31.768Z,45.21
2023-05-09T13:24:00.327Z,49.64
2023-05-09T13:26:29.665Z,48.29
2023-05-09T13:28:58.811Z,48.06
2023-05-09T13:31:27.626Z,46.39
2023-05-09T13:33:56.656Z,46.57
2023-05-09T13:36:25.251Z,46.54
2023-05-09T13:38:55.399Z,45.66
2023-05-09T13:41:24.191Z,44.98
2023-05-09T13:43:52.999Z,46.49
2023-05-09T13:46:21.714Z,46.52
2023-05-09T13:48:50.575Z,48.33
2023-05-09T13:51:19.353Z,46.81
2023-05-09T13:53:48.713Z,45.96
2023-05-09T13:56:19.935Z,45.36
2023-05-09T13:58:49.328Z,46.43
2023-05-09T14:01:18.062Z,44.95
2023-05-09T14:03:49.716Z,43.15
2023-05-09T14:06:18.434Z,45.90
2023-05-09T14:08:47.800Z,43.97
2023-05-09T14:11:16.737Z,45.01
2023-05-09T14:13:47.157Z,44.77
2023-05-09T14:16:16.042Z,44.86
2023-05-09T14:18:44.827Z,44.14
2023-05-09T14:21:13.986Z,45.34
2023-05-09T14:23:43.558Z,44.66
2023-05-09T14:26:12.898Z,45.85
2023-05-09T14:28:46.142Z,46.18
2023-05-09T14:31:17.540Z,47.41
2023-05-09T14:33:46.322Z,45.28
2023-05-09T14:36:15.202Z,45.50
2023-05-09T14:38:44.488Z,45.06
2023-05-09T14:41:15.576Z,45.94
2023-05-09T14:43:44.360Z,45.56
2023-05-09T14:46:13.400Z,44.59
2023-05-09T14:48:43.732Z,45.16
2023-05-09T14:51:13.164Z,44.03
2023-05-09T14:53:42.248Z,45.09
2023-05-09T14:56:11.944Z,44.22
2023-05-09T14:58:40.908Z,44.95
2023-05-09T15:01:09.908Z,45.21
2023-05-09T15:03:39.772Z,44.55
2023-05-09T15:06:09.496Z,46.18
2023-05-09T15:08:39.501Z,46.13
2023-05-09T15:11:09.480Z,45.91
2023-05-09T15:13:38.436Z,45.38
2023-05-09T15:16:07.564Z,45.42
2023-05-09T15:18:36.653Z,46.45
2023-05-09T15:21:06.183Z,46.06
2023-05-09T15:23:36.369Z,45.79
2023-05-09T15:26:05.180Z,45.34
2023-05-09T15:28:34.515Z,45.87
2023-05-09T15:31:04.475Z,46.06
2023-05-09T15:33:33.820Z,46.02
2023-05-09T15:36:03.466Z,45.83
2023-05-09T15:38:31.964Z,44.80
2023-05-09T15:41:03.321Z,46.12
2023-05-09T15:43:32.161Z,46.60
2023-05-09T15:46:01.410Z,44.95
2023-05-09T15:48:30.172Z,45.91
2023-05-09T15:50:59.207Z,46.29
2023-05-09T15:53:29.093Z,46.75
2023-05-09T15:55:58.561Z,46.21
2023-05-09T15:58:28.800Z,47.75
2023-05-09T16:00:57.606Z,47.59
2023-05-09T16:03:26.534Z,48.38
2023-05-09T16:05:55.484Z,47.24
2023-05-09T16:08:24.321Z,47.92
2023-05-09T16:10:53.290Z,47.10
2023-05-09T16:13:22.855Z,48.06
2023-05-09T16:15:54.222Z,48.12
2023-05-09T16:18:23.212Z,48.15
2023-05-09T16:20:52.496Z,48.56
2023-05-09T16:23:21.314Z,48.09
2023-05-09T16:25:51.059Z,48.28
2023-05-09T16:28:23.788Z,47.80
2023-05-09T16:30:54.631Z,48.02
2023-05-09T16:33:23.401Z,47.25
2023-05-09T16:35:52.726Z,47.83
2023-05-09T16:38:21.900Z,48.85
2023-05-09T16:40:51.492Z,49.97
2023-05-09T16:43:21.102Z,50.50
2023-05-09T16:45:50.256Z,49.90
2023-05-09T16:48:21.048Z,50.47
2023-05-09T16:50:53.825Z,51.32
2023-05-09T16:53:24.496Z,51.97
2023-05-09T16:55:55.281Z,52.18
2023-05-09T16:58:25.402Z,52.46
2023-05-09T17:00:55.219Z,52.57
2023-05-09T17:03:26.019Z,52.61
2023-05-09T17:05:55.418Z,53.34
2023-05-09T17:08:24.672Z,53.19
2023-05-09T17:10:54.052Z,52.97
2023-05-09T17:13:23.307Z,53.72
2023-05-09T17:15:52.897Z,54.61
2023-05-09T17:18:35.962Z,55.34
2023-05-09T17:21:08.252Z,55.35
2023-05-09T17:23:36.709Z,56.07
2023-05-09T17:26:05.773Z,56.75
2023-05-09T17:28:34.573Z,57.50
2023-05-09T17:31:03.574Z,58.81
2023-05-09T17:33:32.267Z,58.85
2023-05-09T17:36:01.878Z,60.01
2023-05-09T17:38:32.017Z,61.03
2023-05-09T17:41:01.012Z,61.46
2023-05-09T17:43:30.243Z,62.34
2023-05-09T17:45:59.365Z,63.46
2023-05-09T17:48:28.185Z,64.23
2023-05-09T17:50:57.412Z,64.82
2023-05-09T17:53:25.940Z,65.29
2023-05-09T17:55:55.873Z,66.19
2023-05-09T17:58:24.551Z,66.31
2023-05-09T18:00:55.445Z,66.79
2023-05-09T18:03:25.106Z,67.01
2023-05-09T18:05:53.829Z,68.77
2023-05-09T18:08:22.640Z,68.64
2023-05-09T18:10:51.724Z,70.00
2023-05-09T18:13:23.522Z,70.64
2023-05-09T18:15:54.820Z,70.49
2023-05-09T18:18:24.088Z,70.50
2023-05-09T18:20:53.402Z,71.41
2023-05-09T18:23:22.269Z,72.22
2023-05-09T18:25:51.214Z,72.40
2023-05-09T18:28:24.751Z,72.73
2023-05-09T18:30:59.390Z,72.61
2023-05-09T18:33:29.262Z,73.34
2023-05-09T18:35:58.118Z,74.41
2023-05-09T18:38:27.570Z,74.35
2023-05-09T18:41:00.662Z,74.36
2023-05-09T18:43:31.172Z,74.10
2023-05-09T18:46:01.366Z,74.30
2023-05-09T18:48:31.404Z,74.48
2023-05-09T18:51:00.144Z,74.91
2023-05-09T18:53:29.288Z,75.42
2023-05-09T18:55:58.316Z,75.37
2023-05-09T18:58:28.886Z,75.96
2023-05-09T19:00:58.395Z,76.58
2023-05-09T19:03:29.684Z,77.26
2023-05-09T19:06:00.494Z,78.32
2023-05-09T19:08:29.375Z,79.43
2023-05-09T19:10:58.058Z,79.71
2023-05-09T19:13:27.339Z,79.60
2023-05-09T19:15:57.201Z,80.16
2023-05-09T19:18:25.828Z,80.54
2023-05-09T19:20:57.094Z,80.97
2023-05-09T19:23:26.708Z,81.10
2023-05-09T19:25:56.075Z,81.97
2023-05-09T19:28:25.314Z,81.41
2023-05-09T19:30:55.220Z,81.27
2023-05-09T19:33:25.301Z,82.39
2023-05-09T19:35:55.853Z,82.24
2023-05-09T19:38:24.437Z,83.28
2023-05-09T19:40:53.371Z,82.97
2023-05-09T19:43:22.536Z,84.19
2023-05-09T19:45:50.971Z,83.18
2023-05-09T19:48:19.533Z,84.52
2023-05-09T19:50:48.135Z,84.88
2023-05-09T19:53:18.318Z,85.81
2023-05-09T19:55:48.294Z,86.15
2023-05-09T19:58:18.006Z,86.20
2023-05-09T20:00:47.077Z,86.69
2023-05-09T20:03:16.561Z,87.03
2023-05-09T20:08:36.683Z,88.15
2023-05-09T20:11:05.937Z,87.90
2023-05-09T20:13:34.650Z,89.78
2023-05-09T20:16:04.284Z,90.56
2023-05-09T20:18:33.846Z,91.18
2023-05-09T20:21:02.194Z,91.57
2023-05-09T20:23:31.610Z,92.03
2023-05-09T20:26:01.940Z,92.33
2023-05-09T20:28:30.876Z,92.82
2023-05-09T20:30:59.519Z,94.29
2023-05-09T20:33:28.889Z,94.15
2023-05-09T20:35:57.310Z,95.44
2023-05-09T20:38:26.162Z,96.17
2023-05-09T20:40:55.237Z,97.11
2023-05-09T20:43:25.451Z,96.85
2023-05-09T20:45:54.237Z,96.74
2023-05-09T20:48:24.110Z,97.41
2023-05-09T20:50:53.354Z,97.32
2023-05-09T20:53:26.517Z,97.05
2023-05-09T20:55:55.700Z,97.00
2023-05-09T20:58:26.014Z,97.07
2023-05-09T21:00:54.739Z,96.51
2023-05-09T21:03:23.507Z,96.70
2023-05-09T21:05:52.049Z,97.05
2023-05-09T21:08:20.725Z,98.60
2023-05-09T21:10:48.996Z,98.33
2023-05-09T21:13:17.770Z,98.64
2023-05-09T21:15:50.359Z,98.56
2023-05-09T21:18:21.690Z,98.12
2023-05-09T21:20:50.846Z,98.92
2023-05-09T21:23:19.945Z,99.02
2023-05-09T21:25:48.816Z,99.68
2023-05-09T21:28:17.902Z,99.52
2023-05-09T21:30:52.493Z,100.00
2023-05-09T21:33:21.797Z,99.50
2023-05-09T21:35:50.561Z,100.00
2023-05-09T21:38:19.365Z,100.00
2023-05-09T21:40:48.158Z,100.00
2023-05-09T21:43:18.370Z,100.00
2023-05-09T21:45:49.093Z,100.00
2023-05-09T21:48:17.982Z,100.00
2023-05-09T21:50:46.821Z,100.00
2023-05-09T21:53:15.840Z,100.00
2023-05-09T21:55:44.353Z,100.00
2023-05-09T21:58:16.093Z,100.00
2023-05-09T22:00:44.677Z,100.00
2023-05-09T22:03:15.257Z,100.00
2023-05-09T22:05:43.725Z,100.00
2023-05-09T22:08:12.628Z,100.00
2023-05-09T22:10:41.473Z,100.00
2023-05-09T22:13:10.355Z,100.00
2023-05-09T22:15:38.853Z,100.00
2023-05-09T22:18:08.242Z,100.00
2023-05-09T22:20:38.664Z,100.00
2023-05-09T22:23:07.161Z,100.00
2023-05-09T22:25:35.690Z,100.00
2023-05-09T22:28:04.603Z,100.00
2023-05-09T22:30:32.937Z,100.00
2023-05-09T22:33:01.611Z,100.00
2023-05-09T22:35:30.464Z,100.00
2023-05-09T22:38:00.800Z,100.00
2023-05-09T22:40:29.780Z,100.00
2023-05-09T22:42:58.683Z,100.00
2023-05-09T22:45:27.894Z,100.00
2023-05-09T22:47:57.236Z,100.00
2023-05-09T22:50:26.002Z,100.00
2023-05-09T22:52:54.797Z,100.00
2023-05-09T22:55:25.554Z,100.00
2023-05-09T22:57:54.363Z,100.00
2023-05-09T23:00:23.568Z,100.00
2023-05-09T23:02:52.932Z,100.00
2023-05-09T23:05:22.135Z,100.00
2023-05-09T23:07:52.093Z,100.00
2023-05-09T23:10:21.140Z,100.00
2023-05-09T23:12:51.849Z,100.00
2023-05-09T23:15:20.915Z,100.00
2023-05-09T23:17:49.725Z,100.00
2023-05-09T23:20:18.677Z,100.00
2023-05-09T23:22:48.036Z,100.00
2023-05-09T23:25:16.878Z,100.00
2023-05-09T23:27:47.162Z,100.00
2023-05-09T23:30:17.564Z,100.00
2023-05-09T23:32:46.378Z,100.00
2023-05-09T23:35:15.673Z,100.00
2023-05-09T23:37:44.393Z,100.00
2023-05-09T23:40:14.833Z,100.00
2023-05-09T23:42:44.111Z,100.00
2023-05-09T23:45:13.679Z,100.00
2023-05-09T23:47:43.954Z,100.00
2023-05-09T23:50:13.836Z,100.00
2023-05-09T23:52:43.572Z,100.00
2023-05-09T23:55:12.105Z,100.00
2023-05-09T23:57:40.852Z,100.00
